createdAt,value
2023-03-13T00:01:33.604Z,3.67
2023-03-13T00:04:02.138Z,3.87
2023-03-13T00:06:33.932Z,4.27
2023-03-13T00:09:03.776Z,3.40
2023-03-13T00:11:33.387Z,3.70
2023-03-13T00:14:04.680Z,3.83
2023-03-13T00:16:34.413Z,3.43
2023-03-13T00:19:02.802Z,3.10
2023-03-13T00:21:31.509Z,3.83
2023-03-13T00:24:01.330Z,3.93
2023-03-13T00:26:31.958Z,4.23
2023-03-13T00:29:00.277Z,4.37
2023-03-13T00:31:30.784Z,3.20
2023-03-13T00:34:01.409Z,3.47
2023-03-13T00:36:32.430Z,3.03
2023-03-13T00:39:01.812Z,2.97
2023-03-13T00:41:33.620Z,3.47
2023-03-13T00:44:01.979Z,3.97
2023-03-13T00:46:32.487Z,3.77
2023-03-13T00:49:00.403Z,4.20
2023-03-13T00:51:29.724Z,3.50
2023-03-13T00:54:00.924Z,4.27
2023-03-13T00:56:29.393Z,3.00
2023-03-13T00:59:01.180Z,3.70
2023-03-13T01:01:32.567Z,3.27
2023-03-13T01:04:04.630Z,3.53
2023-03-13T01:06:35.843Z,3.80
2023-03-13T01:09:07.401Z,4.00
2023-03-13T01:11:38.004Z,3.33
2023-03-13T01:14:14.166Z,3.80
2023-03-13T01:16:42.608Z,3.47
2023-03-13T01:19:13.980Z,3.37
2023-03-13T01:21:43.523Z,3.67
2023-03-13T01:24:12.204Z,3.03
2023-03-13T01:26:40.764Z,3.77
2023-03-13T01:29:10.054Z,3.53
2023-03-13T01:31:38.615Z,3.10
2023-03-13T01:34:08.703Z,3.10
2023-03-13T01:36:38.452Z,2.97
2023-03-13T01:39:07.204Z,3.83
2023-03-13T01:41:35.237Z,3.37
2023-03-13T01:44:03.189Z,3.17
2023-03-13T01:46:35.844Z,3.70
2023-03-13T01:49:20.551Z,3.70
2023-03-13T01:52:02.318Z,2.80
2023-03-13T01:54:40.224Z,2.97
2023-03-13T01:57:15.835Z,3.77
2023-03-13T01:59:48.864Z,3.07
2023-03-13T02:02:18.509Z,3.00
2023-03-13T02:04:52.901Z,3.30
2023-03-13T02:07:29.345Z,3.27
2023-03-13T02:09:58.744Z,2.80
2023-03-13T02:12:33.699Z,3.10
2023-03-13T02:15:07.962Z,3.37
2023-03-13T02:17:39.303Z,3.40
2023-03-13T02:20:09.709Z,3.33
2023-03-13T02:22:49.730Z,3.40
2023-03-13T02:25:35.242Z,3.43
2023-03-13T02:28:08.401Z,2.90
2023-03-13T02:30:39.319Z,3.27
2023-03-13T02:33:07.373Z,2.77
2023-03-13T02:35:37.888Z,3.33
2023-03-13T02:38:17.351Z,2.67
2023-03-13T02:40:50.242Z,3.13
2023-03-13T02:43:25.159Z,3.33
2023-03-13T02:46:09.529Z,3.70
2023-03-13T02:48:44.848Z,3.03
2023-03-13T02:51:21.159Z,3.47
2023-03-13T02:53:52.591Z,3.00
2023-03-13T02:56:26.751Z,3.50
2023-03-13T02:58:55.851Z,3.90
2023-03-13T03:01:26.524Z,3.60
2023-03-13T03:03:54.518Z,2.87
2023-03-13T03:06:22.467Z,3.80
2023-03-13T03:08:51.389Z,3.60
2023-03-13T03:11:21.064Z,3.03
2023-03-13T03:13:53.902Z,3.30
2023-03-13T03:16:22.679Z,3.20
2023-03-13T03:18:50.623Z,2.93
2023-03-13T03:21:18.708Z,4.50
2023-03-13T03:23:46.587Z,2.77
2023-03-13T03:26:14.755Z,3.03
2023-03-13T03:28:44.171Z,2.90
2023-03-13T03:31:16.626Z,3.33
2023-03-13T03:33:46.248Z,3.90
2023-03-13T03:36:20.044Z,3.80
2023-03-13T03:38:49.392Z,3.27
2023-03-13T03:41:20.556Z,3.50
2023-03-13T03:43:51.038Z,3.30
2023-03-13T03:46:22.807Z,3.53
2023-03-13T03:48:51.046Z,3.40
2023-03-13T03:51:18.954Z,3.20
2023-03-13T03:53:48.366Z,3.23
2023-03-13T03:56:16.394Z,3.77
2023-03-13T03:58:50.510Z,3.70
2023-03-13T04:01:24.904Z,3.40
2023-03-13T04:03:56.187Z,3.53
2023-03-13T04:06:24.464Z,3.23
2023-03-13T04:08:52.411Z,3.63
2023-03-13T04:11:23.729Z,3.60
2023-03-13T04:13:56.280Z,3.83
2023-03-13T04:16:24.654Z,3.23
2023-03-13T04:18:54.701Z,4.00
2023-03-13T04:21:24.067Z,2.90
2023-03-13T04:23:56.688Z,3.67
2023-03-13T04:26:25.313Z,3.00
2023-03-13T04:28:56.534Z,3.57
2023-03-13T04:31:39.629Z,3.10
2023-03-13T04:34:26.289Z,3.27
2023-03-13T04:37:03.445Z,3.93
2023-03-13T04:39:39.525Z,3.63
2023-03-13T04:42:16.197Z,4.13
2023-03-13T04:45:03.678Z,2.80
2023-03-13T04:47:44.069Z,3.60
2023-03-13T04:50:31.929Z,3.37
2023-03-13T04:53:07.993Z,3.67
2023-03-13T04:55:57.259Z,3.43
2023-03-13T04:58:46.634Z,3.40
2023-03-13T05:01:29.312Z,3.10
2023-03-13T05:04:15.863Z,3.10
2023-03-13T05:06:58.219Z,3.53
2023-03-13T05:09:39.245Z,3.10
2023-03-13T05:12:19.658Z,3.07
2023-03-13T05:15:07.129Z,2.77
2023-03-13T05:17:48.366Z,4.30
2023-03-13T05:20:41.252Z,2.80
2023-03-13T05:23:32.483Z,3.60
2023-03-13T05:26:23.314Z,3.77
2023-03-13T05:29:05.342Z,3.20
2023-03-13T05:32:05.605Z,3.10
2023-03-13T05:34:58.039Z,3.17
2023-03-13T05:37:52.209Z,3.70
2023-03-13T05:40:37.614Z,2.73
2023-03-13T05:43:16.377Z,3.23
2023-03-13T05:46:07.342Z,2.87
2023-03-13T05:48:47.620Z,3.43
2023-03-13T05:51:28.492Z,2.70
2023-03-13T05:54:25.659Z,2.67
2023-03-13T05:57:21.565Z,2.80
2023-03-13T06:00:11.806Z,2.80
2023-03-13T06:02:50.433Z,2.90
2023-03-13T06:05:24.634Z,2.47
2023-03-13T06:07:54.450Z,2.73
2023-03-13T06:10:22.422Z,2.40
2023-03-13T06:12:54.745Z,2.80
2023-03-13T06:15:24.989Z,2.40
2023-03-13T06:17:59.046Z,2.00
2023-03-13T06:20:27.103Z,1.93
2023-03-13T06:22:56.524Z,1.90
2023-03-13T06:25:25.483Z,1.70
2023-03-13T06:27:53.344Z,2.70
2023-03-13T06:30:21.435Z,1.30
2023-03-13T06:32:50.476Z,1.30
2023-03-13T06:35:18.481Z,1.43
2023-03-13T06:37:51.881Z,1.20
2023-03-13T06:40:21.113Z,1.50
2023-03-13T06:42:49.396Z,1.60
2023-03-13T06:45:17.631Z,2.27
2023-03-13T06:47:45.516Z,1.77
2023-03-13T06:50:13.420Z,1.80
2023-03-13T06:52:44.576Z,1.57
2023-03-13T06:55:14.131Z,1.87
2023-03-13T06:57:43.338Z,2.33
2023-03-13T07:00:12.828Z,1.90
2023-03-13T07:02:40.813Z,1.80
2023-03-13T07:05:10.015Z,1.80
2023-03-13T07:07:37.951Z,1.37
2023-03-13T07:10:07.360Z,1.40
2023-03-13T07:12:35.996Z,1.80
2023-03-13T07:15:06.825Z,1.20
2023-03-13T07:17:35.093Z,1.37
2023-03-13T07:20:05.137Z,1.37
2023-03-13T07:22:33.354Z,1.30
2023-03-13T07:25:01.229Z,1.60
2023-03-13T07:27:29.073Z,1.33
2023-03-13T07:29:57.226Z,1.90
2023-03-13T07:32:26.570Z,1.50
2023-03-13T07:34:54.603Z,1.63
2023-03-13T07:37:22.539Z,1.60
2023-03-13T07:39:50.402Z,1.70
2023-03-13T07:42:18.242Z,1.50
2023-03-13T07:44:47.000Z,1.30
2023-03-13T07:47:15.001Z,1.67
2023-03-13T07:49:46.336Z,1.30
2023-03-13T07:52:14.262Z,1.43
2023-03-13T07:54:42.214Z,1.30
2023-03-13T07:57:10.162Z,1.50
2023-03-13T07:59:38.074Z,1.30
2023-03-13T08:02:06.324Z,1.50
2023-03-13T08:04:34.286Z,1.60
2023-03-13T08:07:03.456Z,1.27
2023-03-13T08:09:34.202Z,1.67
2023-03-13T08:12:02.186Z,1.30
2023-03-13T08:14:30.416Z,1.57
2023-03-13T08:16:58.364Z,1.57
2023-03-13T08:19:26.294Z,1.33
2023-03-13T08:21:54.767Z,1.43
2023-03-13T08:24:23.979Z,1.40
2023-03-13T08:26:51.842Z,1.57
2023-03-13T08:29:19.730Z,1.60
2023-03-13T08:31:50.012Z,1.40
2023-03-13T08:34:19.683Z,1.30
2023-03-13T08:36:47.903Z,1.40
2023-03-13T08:39:18.538Z,1.40
2023-03-13T08:41:48.322Z,1.43
2023-03-13T08:44:21.030Z,1.50
2023-03-13T08:46:49.142Z,1.50
2023-03-13T08:49:18.260Z,1.53
2023-03-13T08:51:46.179Z,1.47
2023-03-13T08:54:14.108Z,1.30
2023-03-13T08:56:43.590Z,1.53
2023-03-13T08:59:12.851Z,1.73
2023-03-13T09:01:40.790Z,1.23
2023-03-13T09:04:09.125Z,1.27
2023-03-13T09:06:39.765Z,1.10
2023-03-13T09:09:09.094Z,1.20
2023-03-13T09:11:39.296Z,1.30
2023-03-13T09:14:08.830Z,2.17
2023-03-13T09:16:38.483Z,1.50
2023-03-13T09:19:06.989Z,1.20
2023-03-13T09:21:36.932Z,1.37
2023-03-13T09:24:05.743Z,1.23
2023-03-13T09:26:33.680Z,1.30
2023-03-13T09:29:01.663Z,2.07
2023-03-13T09:31:33.187Z,1.50
2023-03-13T09:34:04.006Z,1.30
2023-03-13T09:36:31.921Z,1.07
2023-03-13T09:39:01.481Z,1.17
2023-03-13T09:41:39.549Z,2.20
2023-03-13T09:44:18.304Z,1.00
2023-03-13T09:47:01.436Z,1.23
2023-03-13T09:49:38.737Z,1.00
2023-03-13T09:52:17.660Z,1.00
2023-03-13T09:54:52.069Z,0.80
2023-03-13T09:57:33.936Z,1.77
2023-03-13T10:00:12.520Z,1.10
2023-03-13T10:02:45.099Z,1.00
2023-03-13T10:05:21.480Z,1.30
2023-03-13T10:07:50.019Z,1.13
2023-03-13T10:10:22.538Z,1.10
2023-03-13T10:12:58.453Z,1.03
2023-03-13T10:15:38.567Z,0.83
2023-03-13T10:18:19.614Z,0.80
2023-03-13T10:20:51.765Z,1.20
2023-03-13T10:23:28.532Z,3.47
2023-03-13T10:25:56.567Z,1.77
2023-03-13T10:28:26.100Z,1.10
2023-03-13T10:31:01.482Z,1.10
2023-03-13T10:33:30.826Z,0.97
2023-03-13T10:36:10.932Z,0.80
2023-03-13T10:38:51.150Z,1.17
2023-03-13T10:41:32.391Z,1.00
2023-03-13T10:44:05.438Z,0.93
2023-03-13T10:46:36.544Z,1.00
2023-03-13T10:49:16.610Z,0.80
2023-03-13T10:51:51.386Z,0.90
2023-03-13T10:54:25.493Z,1.23
2023-03-13T10:57:10.436Z,1.00
2023-03-13T10:59:44.917Z,1.20
2023-03-13T11:02:26.505Z,1.30
2023-03-13T11:04:55.295Z,1.47
2023-03-13T11:07:30.715Z,1.60
2023-03-13T11:10:17.965Z,1.40
2023-03-13T11:12:48.439Z,2.10
2023-03-13T11:15:22.273Z,1.00
2023-03-13T11:18:00.328Z,1.47
2023-03-13T11:20:32.581Z,1.43
2023-03-13T11:23:21.864Z,1.40
2023-03-13T11:26:03.020Z,1.13
2023-03-13T11:28:57.153Z,1.30
2023-03-13T11:31:32.810Z,1.20
2023-03-13T11:34:12.716Z,1.10
2023-03-13T11:36:53.409Z,1.20
2023-03-13T11:39:54.562Z,1.20
2023-03-13T11:42:50.240Z,1.20
2023-03-13T11:46:01.814Z,1.57
2023-03-13T11:49:02.488Z,1.80
2023-03-13T11:51:46.858Z,1.90
2023-03-13T11:54:45.413Z,3.90
2023-03-13T11:57:19.701Z,2.73
2023-03-13T12:00:16.003Z,1.80
2023-03-13T12:02:51.616Z,4.03
2023-03-13T12:05:21.850Z,2.80
2023-03-13T12:07:58.428Z,2.50
2023-03-13T12:10:36.498Z,2.37
2023-03-13T12:13:16.019Z,2.00
2023-03-13T12:15:55.501Z,1.50
2023-03-13T12:18:31.396Z,1.40
2023-03-13T12:21:10.831Z,1.87
2023-03-13T12:23:50.086Z,1.20
2023-03-13T12:26:22.790Z,1.87
2023-03-13T12:29:14.660Z,1.40
2023-03-13T12:31:52.793Z,1.50
2023-03-13T12:34:28.631Z,1.20
2023-03-13T12:37:08.374Z,1.37
2023-03-13T12:39:44.005Z,1.70
2023-03-13T12:42:29.011Z,1.40
2023-03-13T12:44:59.153Z,1.70
2023-03-13T12:47:35.103Z,1.70
2023-03-13T12:50:35.711Z,1.37
2023-03-13T12:53:38.614Z,1.30
2023-03-13T12:56:30.896Z,3.33
2023-03-13T12:59:09.505Z,1.83
2023-03-13T13:01:42.924Z,1.40
2023-03-13T13:04:17.433Z,1.70
2023-03-13T13:07:03.454Z,2.60
2023-03-13T13:09:36.058Z,1.77
2023-03-13T13:12:05.318Z,2.00
2023-03-13T13:15:17.192Z,1.40
2023-03-13T13:18:06.826Z,1.30
2023-03-13T13:20:45.764Z,1.47
2023-03-13T13:23:38.395Z,1.10
2023-03-13T13:26:49.319Z,1.20
2023-03-13T13:29:57.280Z,1.53
2023-03-13T13:32:45.035Z,1.43
2023-03-13T13:35:30.260Z,0.90
2023-03-13T13:38:34.467Z,1.23
2023-03-13T13:41:06.669Z,0.93
2023-03-13T13:43:38.849Z,2.00
2023-03-13T13:46:23.479Z,0.90
2023-03-13T13:49:17.608Z,0.90
2023-03-13T13:52:36.748Z,0.90
2023-03-13T13:55:34.852Z,0.90
2023-03-13T13:58:06.465Z,0.90
2023-03-13T14:00:43.992Z,0.77
2023-03-13T14:03:32.928Z,0.90
2023-03-13T14:06:12.762Z,0.83
2023-03-13T14:08:45.124Z,0.80
2023-03-13T14:11:30.436Z,1.00
2023-03-13T14:14:12.145Z,1.07
2023-03-13T14:16:42.276Z,0.70
2023-03-13T14:19:26.588Z,0.77
2023-03-13T14:22:02.379Z,0.73
2023-03-13T14:24:30.401Z,0.83
2023-03-13T14:26:58.438Z,0.90
2023-03-13T14:29:26.911Z,0.83
2023-03-13T14:31:57.743Z,0.77
2023-03-13T14:34:28.616Z,0.80
2023-03-13T14:37:17.356Z,0.93
2023-03-13T14:39:48.743Z,1.00
2023-03-13T14:42:20.019Z,0.80
2023-03-13T14:44:51.016Z,0.70
2023-03-13T14:47:26.697Z,0.50
2023-03-13T14:49:59.880Z,0.67
2023-03-13T14:52:31.708Z,0.50
2023-03-13T14:55:04.175Z,0.70
2023-03-13T14:57:33.862Z,0.70
2023-03-13T15:00:30.770Z,0.70
2023-03-13T15:03:21.628Z,0.90
2023-03-13T15:06:03.671Z,0.80
2023-03-13T15:08:32.956Z,0.90
2023-03-13T15:11:01.511Z,0.70
2023-03-13T15:13:37.057Z,0.83
2023-03-13T15:16:16.053Z,0.80
2023-03-13T15:18:44.032Z,0.60
2023-03-13T15:21:27.914Z,0.87
2023-03-13T15:24:02.154Z,0.87
2023-03-13T15:26:30.910Z,0.90
2023-03-13T15:28:58.797Z,0.97
2023-03-13T15:31:30.480Z,0.97
2023-03-13T15:34:01.552Z,0.90
2023-03-13T15:36:31.581Z,0.80
2023-03-13T15:39:00.875Z,1.00
2023-03-13T15:41:29.103Z,1.10
2023-03-13T15:43:57.414Z,1.00
2023-03-13T15:46:28.396Z,0.83
2023-03-13T15:48:56.512Z,0.93
2023-03-13T15:51:24.750Z,0.70
2023-03-13T15:53:53.509Z,0.70
2023-03-13T15:56:24.548Z,0.63
2023-03-13T15:58:52.797Z,0.80
2023-03-13T16:01:23.907Z,0.80
2023-03-13T16:03:51.887Z,0.80
2023-03-13T16:06:30.672Z,1.10
2023-03-13T16:09:00.033Z,1.20
2023-03-13T16:11:30.643Z,1.10
2023-03-13T16:13:58.742Z,0.93
2023-03-13T16:16:30.700Z,1.00
2023-03-13T16:19:00.324Z,0.90
2023-03-13T16:21:31.006Z,1.03
2023-03-13T16:23:59.712Z,1.03
2023-03-13T16:26:31.861Z,1.20
2023-03-13T16:29:00.377Z,1.20
2023-03-13T16:31:31.243Z,1.20
2023-03-13T16:34:01.116Z,1.40
2023-03-13T16:36:32.821Z,1.50
2023-03-13T16:39:03.091Z,1.80
2023-03-13T16:41:33.410Z,1.90
2023-03-13T16:44:02.656Z,1.50
2023-03-13T16:46:37.600Z,1.83
2023-03-13T16:49:07.051Z,1.80
2023-03-13T16:51:35.568Z,1.80
2023-03-13T16:54:03.824Z,1.60
2023-03-13T16:56:36.283Z,1.90
2023-03-13T16:59:08.818Z,2.00
2023-03-13T17:01:37.397Z,1.90
2023-03-13T17:04:06.120Z,2.10
2023-03-13T17:06:38.064Z,2.10
2023-03-13T17:09:11.610Z,1.97
2023-03-13T17:11:41.342Z,1.87
2023-03-13T17:14:09.439Z,1.90
2023-03-13T17:16:42.247Z,1.70
2023-03-13T17:19:15.135Z,2.20
2023-03-13T17:21:43.560Z,2.50
2023-03-13T17:24:11.812Z,1.77
2023-03-13T17:26:41.623Z,2.00
2023-03-13T17:29:16.944Z,1.83
2023-03-13T17:31:45.192Z,1.73
2023-03-13T17:34:13.148Z,1.43
2023-03-13T17:36:45.316Z,1.70
2023-03-13T17:39:15.809Z,1.73
2023-03-13T17:41:45.199Z,2.00
2023-03-13T17:44:13.090Z,1.97
2023-03-13T17:46:44.585Z,2.67
2023-03-13T17:49:14.237Z,3.00
2023-03-13T17:51:43.204Z,2.13
2023-03-13T17:54:14.437Z,2.10
2023-03-13T17:56:45.764Z,2.00
2023-03-13T17:59:16.993Z,2.10
2023-03-13T18:01:45.977Z,2.00
2023-03-13T18:04:14.476Z,2.00
2023-03-13T18:06:45.929Z,1.70
2023-03-13T18:09:16.684Z,2.57
2023-03-13T18:11:46.808Z,2.00
2023-03-13T18:14:14.840Z,1.90
2023-03-13T18:16:47.777Z,1.70
2023-03-13T18:19:20.566Z,1.80
2023-03-13T18:21:52.624Z,2.30
2023-03-13T18:24:21.293Z,2.10
2023-03-13T18:26:51.351Z,1.90
2023-03-13T18:29:26.171Z,2.27
2023-03-13T18:31:55.754Z,2.20
2023-03-13T18:34:24.811Z,1.83
2023-03-13T18:36:54.109Z,2.10
2023-03-13T18:39:22.560Z,2.23
2023-03-13T18:41:52.655Z,2.47
2023-03-13T18:44:21.032Z,2.43
2023-03-13T18:46:51.301Z,2.30
2023-03-13T18:49:24.677Z,2.30
2023-03-13T18:51:54.365Z,1.90
2023-03-13T18:54:22.301Z,2.13
2023-03-13T18:56:51.571Z,2.13
2023-03-13T18:59:22.960Z,2.00
2023-03-13T19:01:51.557Z,2.63
2023-03-13T19:04:20.755Z,2.40
2023-03-13T19:06:49.282Z,4.20
2023-03-13T19:12:09.197Z,3.53
2023-03-13T19:14:37.099Z,2.70
2023-03-13T19:17:12.944Z,2.83
2023-03-13T19:19:40.889Z,2.73
2023-03-13T19:22:14.624Z,2.33
2023-03-13T19:24:42.558Z,2.30
2023-03-13T19:27:16.716Z,2.40
2023-03-13T19:29:45.395Z,2.10
2023-03-13T19:32:15.876Z,2.00
2023-03-13T19:34:44.330Z,2.20
2023-03-13T19:37:13.965Z,2.27
2023-03-13T19:39:42.409Z,2.27
2023-03-13T19:42:12.238Z,2.50
2023-03-13T19:44:41.316Z,2.17
2023-03-13T19:47:15.644Z,2.70
2023-03-13T19:49:45.344Z,2.33
2023-03-13T19:52:13.311Z,2.37
2023-03-13T19:54:41.331Z,2.30
2023-03-13T19:57:12.634Z,1.83
2023-03-13T19:59:40.542Z,2.10
2023-03-13T20:02:11.003Z,2.70
2023-03-13T20:04:39.487Z,2.90
2023-03-13T20:07:08.203Z,2.50
2023-03-13T20:09:36.788Z,2.33
2023-03-13T20:12:05.746Z,2.10
2023-03-13T20:14:35.008Z,2.80
2023-03-13T20:17:03.674Z,3.17
2023-03-13T20:19:32.056Z,2.30
2023-03-13T20:22:03.506Z,2.10
2023-03-13T20:24:33.492Z,1.80
2023-03-13T20:27:01.801Z,1.87
2023-03-13T20:29:29.764Z,1.77
2023-03-13T20:32:01.243Z,1.70
2023-03-13T20:34:29.297Z,2.00
2023-03-13T20:36:59.003Z,1.93
2023-03-13T20:39:28.092Z,3.80
2023-03-13T20:41:56.448Z,2.40
2023-03-13T20:44:24.536Z,2.43
2023-03-13T20:46:52.474Z,2.90
2023-03-13T20:49:22.018Z,2.80
2023-03-13T20:51:50.726Z,2.60
2023-03-13T20:54:19.145Z,2.00
2023-03-13T20:56:47.316Z,1.90
2023-03-13T20:59:15.194Z,1.70
2023-03-13T21:01:43.938Z,1.60
2023-03-13T21:04:12.187Z,1.90
2023-03-13T21:06:41.741Z,1.70
2023-03-13T21:09:09.666Z,2.07
2023-03-13T21:11:37.612Z,1.80
2023-03-13T21:14:05.604Z,1.80
2023-03-13T21:16:34.720Z,2.00
2023-03-13T21:19:02.612Z,2.37
2023-03-13T21:21:30.833Z,2.47
2023-03-13T21:24:00.123Z,2.50
2023-03-13T21:26:28.351Z,2.20
2023-03-13T21:28:56.204Z,2.10
2023-03-13T21:31:24.152Z,2.30
2023-03-13T21:33:52.094Z,2.23
2023-03-13T21:36:22.459Z,2.40
2023-03-13T21:38:51.521Z,2.13
2023-03-13T21:41:22.826Z,2.10
2023-03-13T21:43:50.724Z,2.00
2023-03-13T21:46:20.758Z,1.97
2023-03-13T21:48:48.786Z,2.60
2023-03-13T21:51:17.123Z,2.03
2023-03-13T21:53:45.222Z,2.43
2023-03-13T21:56:15.545Z,2.83
2023-03-13T21:58:46.559Z,2.43
2023-03-13T22:01:15.914Z,2.27
2023-03-13T22:03:44.051Z,1.73
2023-03-13T22:06:16.916Z,1.43
2023-03-13T22:08:45.198Z,2.07
2023-03-13T22:11:13.413Z,1.90
2023-03-13T22:13:41.323Z,1.50
2023-03-13T22:16:11.406Z,1.80
2023-03-13T22:18:41.837Z,1.57
2023-03-13T22:21:10.185Z,1.90
2023-03-13T22:23:38.101Z,2.03
2023-03-13T22:26:06.760Z,1.87
2023-03-13T22:28:34.734Z,1.50
2023-03-13T22:31:03.140Z,1.70
2023-03-13T22:33:33.950Z,2.60
2023-03-13T22:36:03.011Z,5.33
2023-03-13T22:38:31.433Z,7.77
2023-03-13T22:41:02.116Z,6.87
2023-03-13T22:43:30.440Z,5.17
2023-03-13T22:45:59.547Z,4.70
2023-03-13T22:48:28.446Z,3.40
2023-03-13T22:51:02.953Z,2.87
2023-03-13T22:53:32.900Z,3.60
2023-03-13T22:56:01.230Z,2.67
2023-03-13T22:58:29.486Z,2.20
2023-03-13T23:00:57.677Z,2.67
2023-03-13T23:03:25.783Z,2.83
2023-03-13T23:05:54.124Z,1.77
2023-03-13T23:08:23.810Z,1.30
2023-03-13T23:10:51.856Z,1.30
2023-03-13T23:13:19.726Z,1.50
2023-03-13T23:15:55.585Z,1.33
2023-03-13T23:18:24.384Z,1.30
2023-03-13T23:20:52.663Z,1.47
2023-03-13T23:23:20.892Z,1.37
2023-03-13T23:25:50.837Z,1.40
2023-03-13T23:28:18.732Z,1.53
2023-03-13T23:30:49.307Z,0.97
2023-03-13T23:33:17.177Z,1.10
2023-03-13T23:35:45.190Z,1.20
2023-03-13T23:38:14.071Z,1.47
2023-03-13T23:40:41.942Z,1.47
2023-03-13T23:43:11.249Z,1.47
2023-03-13T23:45:40.230Z,1.07
2023-03-13T23:48:08.145Z,1.20
2023-03-13T23:50:37.490Z,1.20
2023-03-13T23:53:05.341Z,1.03
2023-03-13T23:55:33.397Z,1.10
2023-03-13T23:58:01.275Z,1.13
